createdAt,value
2022-09-07T00:00:12.000Z,0
2022-09-07T00:01:28.925Z,0
2022-09-07T00:02:44.000Z,0
2022-09-07T00:04:00.000Z,0
2022-09-07T00:05:16.000Z,0
2022-09-07T00:06:32.000Z,0
2022-09-07T00:07:48.670Z,0
2022-09-07T00:09:04.000Z,0
2022-09-07T00:10:20.000Z,0
2022-09-07T00:11:36.000Z,0
2022-09-07T00:12:53.253Z,0
2022-09-07T00:14:09.000Z,0
2022-09-07T00:15:25.000Z,0
2022-09-07T00:16:41.697Z,0
2022-09-07T00:17:57.840Z,0
2022-09-07T00:19:13.000Z,0
2022-09-07T00:20:28.000Z,0
2022-09-07T00:21:45.000Z,0
2022-09-07T00:23:01.000Z,0
2022-09-07T00:26:49.892Z,0
2022-09-07T00:28:04.000Z,0
2022-09-07T00:29:20.000Z,0
2022-09-07T00:30:37.000Z,0
2022-09-07T00:31:53.000Z,0
2022-09-07T00:33:09.000Z,0
2022-09-07T00:34:25.000Z,0
2022-09-07T00:35:41.000Z,0
2022-09-07T00:36:57.000Z,0
2022-09-07T00:38:13.000Z,0
2022-09-07T00:39:30.000Z,0
2022-09-07T00:40:46.516Z,0
2022-09-07T00:42:02.000Z,0
2022-09-07T00:43:18.807Z,0
2022-09-07T00:44:33.000Z,0
2022-09-07T00:45:49.000Z,0
2022-09-07T00:47:06.000Z,0
2022-09-07T00:48:22.000Z,0
2022-09-07T00:49:38.000Z,0
2022-09-07T00:50:54.705Z,0
2022-09-07T00:52:10.000Z,0
2022-09-07T00:53:26.000Z,0
2022-09-07T00:54:42.000Z,0
2022-09-07T00:55:59.000Z,0
2022-09-07T00:57:15.000Z,0
2022-09-07T00:58:31.000Z,0
2022-09-07T00:59:47.000Z,0
2022-09-07T01:01:02.000Z,0
2022-09-07T01:02:18.000Z,0
2022-09-07T01:03:35.181Z,0
2022-09-07T01:04:51.000Z,0
2022-09-07T01:06:07.000Z,0
2022-09-07T01:07:23.000Z,0
2022-09-07T01:08:39.766Z,0
2022-09-07T01:09:55.000Z,0
2022-09-07T01:11:11.000Z,0
2022-09-07T01:12:28.203Z,0
2022-09-07T01:13:44.000Z,0
2022-09-07T01:15:00.000Z,0
2022-09-07T01:16:16.000Z,0
2022-09-07T01:17:31.000Z,0
2022-09-07T01:18:47.000Z,0
2022-09-07T01:20:03.000Z,0
2022-09-07T01:21:20.000Z,0
2022-09-07T01:22:36.394Z,0
2022-09-07T01:23:52.000Z,0
2022-09-07T01:25:08.000Z,0
2022-09-07T01:26:24.000Z,0
2022-09-07T01:27:40.979Z,0
2022-09-07T01:28:57.124Z,0
2022-09-07T01:30:13.000Z,0
2022-09-07T01:31:29.000Z,0
2022-09-07T01:32:45.571Z,0
2022-09-07T01:34:00.000Z,0
2022-09-07T01:35:16.873Z,0
2022-09-07T01:36:32.000Z,0
2022-09-07T01:37:48.000Z,0
2022-09-07T01:39:05.311Z,0
2022-09-07T01:40:21.464Z,0
2022-09-07T01:41:37.000Z,0
2022-09-07T01:42:53.744Z,0
2022-09-07T01:44:09.896Z,0
2022-09-07T01:45:26.045Z,0
2022-09-07T01:46:41.000Z,0
2022-09-07T01:47:58.000Z,0
2022-09-07T01:49:14.000Z,0
2022-09-07T01:50:29.640Z,0
2022-09-07T01:51:45.000Z,0
2022-09-07T01:53:01.000Z,0
2022-09-07T01:54:17.000Z,0
2022-09-07T01:55:33.000Z,0
2022-09-07T01:56:50.380Z,0
2022-09-07T01:58:06.000Z,0
2022-09-07T01:59:22.000Z,0
2022-09-07T02:00:38.000Z,0
2022-09-07T02:01:54.000Z,0
2022-09-07T02:03:10.000Z,0
2022-09-07T02:04:27.000Z,0
2022-09-07T02:05:43.000Z,0
2022-09-07T02:06:58.000Z,0
2022-09-07T02:08:14.000Z,0
2022-09-07T02:09:30.000Z,0
2022-09-07T02:10:46.000Z,0
2022-09-07T02:12:02.000Z,0
2022-09-07T02:13:19.290Z,0
2022-09-07T02:14:35.000Z,0
2022-09-07T02:15:51.586Z,0
2022-09-07T02:17:07.000Z,0
2022-09-07T02:18:23.000Z,0
2022-09-07T02:19:39.000Z,0
2022-09-07T02:20:55.000Z,0
2022-09-07T02:22:12.000Z,0
2022-09-07T02:23:27.476Z,0
2022-09-07T02:24:43.000Z,0
2022-09-07T02:25:59.000Z,0
2022-09-07T02:27:15.000Z,0
2022-09-07T02:28:31.000Z,0
2022-09-07T02:29:47.000Z,0
2022-09-07T02:31:04.000Z,0
2022-09-07T02:32:20.000Z,0
2022-09-07T02:33:36.000Z,0
2022-09-07T02:34:52.000Z,0
2022-09-07T02:36:08.944Z,0
2022-09-07T02:37:25.084Z,0
2022-09-07T02:38:41.000Z,0
2022-09-07T02:39:56.000Z,0
2022-09-07T02:41:12.000Z,0
2022-09-07T02:42:28.000Z,0
2022-09-07T02:43:44.000Z,0
2022-09-07T02:45:00.000Z,0
2022-09-07T02:46:16.000Z,0
2022-09-07T02:47:33.000Z,0
2022-09-07T02:48:49.000Z,0
2022-09-07T02:50:05.000Z,0
2022-09-07T02:51:21.000Z,0
2022-09-07T02:52:37.000Z,0
2022-09-07T02:53:53.000Z,0
2022-09-07T02:55:09.000Z,0
2022-09-07T02:56:25.309Z,0
2022-09-07T02:57:41.000Z,0
2022-09-07T02:58:57.605Z,0
2022-09-07T03:00:13.000Z,0
2022-09-07T03:01:29.000Z,0
2022-09-07T03:02:45.000Z,0
2022-09-07T03:04:01.000Z,0
2022-09-07T03:05:18.337Z,0
2022-09-07T03:06:34.000Z,0
2022-09-07T03:07:50.000Z,0
2022-09-07T03:09:06.000Z,0
2022-09-07T03:10:22.000Z,0
2022-09-07T03:11:39.067Z,0
2022-09-07T03:12:54.000Z,0
2022-09-07T03:14:10.000Z,0
2022-09-07T03:15:26.521Z,0
2022-09-07T03:16:42.000Z,0
2022-09-07T03:17:58.000Z,0
2022-09-07T03:19:14.000Z,0
2022-09-07T03:20:30.000Z,0
2022-09-07T03:21:47.000Z,0
2022-09-07T03:23:03.000Z,0
2022-09-07T03:24:19.545Z,0
2022-09-07T03:25:35.691Z,0
2022-09-07T03:26:51.843Z,0
2022-09-07T03:28:07.000Z,0
2022-09-07T03:29:22.000Z,0
2022-09-07T03:30:39.000Z,0
2022-09-07T03:31:55.000Z,0
2022-09-07T03:33:11.000Z,0
2022-09-07T03:34:27.000Z,0
2022-09-07T03:35:43.000Z,0
2022-09-07T03:36:59.000Z,0
2022-09-07T03:38:15.000Z,0
2022-09-07T03:39:32.000Z,0
2022-09-07T03:40:48.000Z,0
2022-09-07T03:42:04.000Z,0
2022-09-07T03:43:20.529Z,0
2022-09-07T03:44:36.000Z,0
2022-09-07T03:45:51.000Z,0
2022-09-07T03:47:07.000Z,0
2022-09-07T03:48:24.000Z,0
2022-09-07T03:49:40.000Z,0
2022-09-07T03:50:56.000Z,0
2022-09-07T03:52:12.000Z,0
2022-09-07T03:53:28.000Z,0
2022-09-07T03:54:44.000Z,0
2022-09-07T03:56:01.000Z,0
2022-09-07T03:57:17.383Z,0
2022-09-07T03:58:33.530Z,0
2022-09-07T03:59:49.000Z,0
2022-09-07T04:01:05.000Z,0
2022-09-07T04:02:20.000Z,0
2022-09-07T04:03:36.000Z,0
2022-09-07T04:04:53.000Z,0
2022-09-07T04:06:09.000Z,0
2022-09-07T04:07:25.000Z,0
2022-09-07T04:08:41.000Z,0
2022-09-07T04:09:57.867Z,0
2022-09-07T04:11:13.000Z,0
2022-09-07T04:12:29.000Z,0
2022-09-07T04:13:46.000Z,0
2022-09-07T04:15:02.000Z,0
2022-09-07T04:16:18.000Z,4
2022-09-07T04:17:34.000Z,0
2022-09-07T04:18:49.000Z,0
2022-09-07T04:20:05.000Z,4
2022-09-07T04:21:22.200Z,4
2022-09-07T04:22:38.000Z,4
2022-09-07T04:23:54.000Z,4
2022-09-07T04:25:10.644Z,8
2022-09-07T04:26:26.000Z,8
2022-09-07T04:27:42.000Z,8
2022-09-07T04:28:58.000Z,8
2022-09-07T04:30:14.000Z,12
2022-09-07T04:31:31.000Z,8
2022-09-07T04:32:47.000Z,12
2022-09-07T04:34:03.666Z,16
2022-09-07T04:35:18.000Z,16
2022-09-07T04:36:34.974Z,20
2022-09-07T04:37:50.000Z,24
2022-09-07T04:39:07.000Z,24
2022-09-07T04:40:23.410Z,24
2022-09-07T04:41:39.000Z,24
2022-09-07T04:42:54.730Z,28
2022-09-07T04:44:10.000Z,32
2022-09-07T04:45:26.000Z,32
2022-09-07T04:46:43.172Z,36
2022-09-07T04:47:59.000Z,40
2022-09-07T04:49:15.000Z,40
2022-09-07T04:50:31.000Z,44
2022-09-07T04:51:47.757Z,48
2022-09-07T04:53:03.000Z,56
2022-09-07T04:54:19.000Z,60
2022-09-07T04:55:35.000Z,68
2022-09-07T04:56:52.000Z,80
2022-09-07T04:58:08.000Z,92
2022-09-07T04:59:23.000Z,100
2022-09-07T05:00:39.000Z,112
2022-09-07T05:01:55.951Z,120
2022-09-07T05:03:11.000Z,128
2022-09-07T05:04:28.000Z,136
2022-09-07T05:05:44.000Z,140
2022-09-07T05:07:00.000Z,148
2022-09-07T05:08:16.000Z,156
2022-09-07T05:09:32.000Z,168
2022-09-07T05:10:48.000Z,184
2022-09-07T05:12:04.000Z,196
2022-09-07T05:13:21.000Z,208
2022-09-07T05:14:37.000Z,220
2022-09-07T05:15:52.000Z,232
2022-09-07T05:17:08.720Z,236
2022-09-07T05:18:24.000Z,248
2022-09-07T05:19:40.000Z,256
2022-09-07T05:20:56.000Z,268
2022-09-07T05:22:13.000Z,280
2022-09-07T05:23:29.000Z,288
2022-09-07T05:24:45.000Z,300
2022-09-07T05:26:01.000Z,308
2022-09-07T05:27:17.000Z,316
2022-09-07T05:28:33.000Z,328
2022-09-07T05:29:49.000Z,332
2022-09-07T05:31:06.000Z,332
2022-09-07T05:32:21.000Z,328
2022-09-07T05:33:37.632Z,324
2022-09-07T05:34:53.000Z,324
2022-09-07T05:36:09.000Z,332
2022-09-07T05:37:26.089Z,340
2022-09-07T05:38:41.995Z,348
2022-09-07T05:39:58.369Z,356
2022-09-07T05:41:14.000Z,364
2022-09-07T05:42:30.000Z,364
2022-09-07T05:43:46.000Z,360
2022-09-07T05:45:02.944Z,360
2022-09-07T05:46:19.092Z,360
2022-09-07T05:47:35.000Z,368
2022-09-07T05:48:50.000Z,376
2022-09-07T05:50:06.540Z,388
2022-09-07T05:51:22.000Z,404
2022-09-07T05:52:38.000Z,416
2022-09-07T05:53:54.000Z,432
2022-09-07T05:55:10.000Z,440
2022-09-07T05:56:27.000Z,460
2022-09-07T05:57:43.411Z,476
2022-09-07T05:58:59.000Z,496
2022-09-07T06:00:15.000Z,520
2022-09-07T06:01:31.000Z,544
2022-09-07T06:02:47.000Z,572
2022-09-07T06:04:03.000Z,600
2022-09-07T06:05:19.000Z,628
2022-09-07T06:06:35.000Z,656
2022-09-07T06:07:51.000Z,680
2022-09-07T06:09:07.000Z,696
2022-09-07T06:10:23.877Z,716
2022-09-07T06:11:39.000Z,716
2022-09-07T06:12:55.000Z,700
2022-09-07T06:14:12.000Z,640
2022-09-07T06:15:28.000Z,532
2022-09-07T06:16:44.605Z,456
2022-09-07T06:18:00.751Z,452
2022-09-07T06:19:16.000Z,524
2022-09-07T06:20:33.035Z,700
2022-09-07T06:21:47.000Z,844
2022-09-07T06:23:04.342Z,900
2022-09-07T06:24:20.000Z,912
2022-09-07T06:25:36.000Z,916
2022-09-07T06:26:52.000Z,916
2022-09-07T06:28:08.000Z,920
2022-09-07T06:29:25.071Z,912
2022-09-07T06:30:40.000Z,896
2022-09-07T06:31:57.000Z,876
2022-09-07T06:33:13.000Z,872
2022-09-07T06:34:29.000Z,868
2022-09-07T06:35:45.000Z,864
2022-09-07T06:37:01.944Z,856
2022-09-07T06:38:16.000Z,848
2022-09-07T06:39:33.000Z,832
2022-09-07T06:40:49.000Z,816
2022-09-07T06:42:05.000Z,796
2022-09-07T06:43:21.681Z,748
2022-09-07T06:44:37.843Z,716
2022-09-07T06:45:53.000Z,736
2022-09-07T06:47:09.000Z,772
2022-09-07T06:48:26.264Z,844
2022-09-07T06:49:42.000Z,960
2022-09-07T06:50:58.000Z,1044
2022-09-07T06:52:14.696Z,1032
2022-09-07T06:53:30.000Z,1012
2022-09-07T06:54:45.000Z,1012
2022-09-07T06:56:01.000Z,1004
2022-09-07T06:57:18.000Z,984
2022-09-07T06:58:34.000Z,1020
2022-09-07T06:59:50.000Z,1100
2022-09-07T07:01:06.000Z,1224
2022-09-07T07:02:22.000Z,1308
2022-09-07T07:03:38.000Z,1352
2022-09-07T07:04:54.000Z,1352
2022-09-07T07:06:11.000Z,1444
2022-09-07T07:07:27.000Z,1616
2022-09-07T07:08:43.000Z,1668
2022-09-07T07:09:59.000Z,1584
2022-09-07T07:11:14.000Z,1484
2022-09-07T07:13:46.000Z,1648
2022-09-07T07:15:03.000Z,1664
2022-09-07T07:16:19.000Z,1572
2022-09-07T07:17:35.000Z,1580
2022-09-07T07:18:51.000Z,1660
2022-09-07T07:20:07.000Z,1616
2022-09-07T07:21:24.069Z,1444
2022-09-07T07:22:39.000Z,1264
2022-09-07T07:23:56.000Z,1092
2022-09-07T07:25:12.000Z,1012
2022-09-07T07:26:28.000Z,968
2022-09-07T07:27:43.000Z,956
2022-09-07T07:28:59.960Z,872
2022-09-07T07:30:16.105Z,688
2022-09-07T07:31:32.000Z,648
2022-09-07T07:32:48.000Z,612
2022-09-07T07:34:04.000Z,548
2022-09-07T07:35:20.000Z,484
2022-09-07T07:36:36.000Z,436
2022-09-07T07:37:52.000Z,420
2022-09-07T07:39:08.000Z,416
2022-09-07T07:40:25.265Z,436
2022-09-07T07:41:41.000Z,452
2022-09-07T07:42:57.000Z,500
2022-09-07T07:44:12.000Z,480
2022-09-07T07:45:28.000Z,432
2022-09-07T07:46:44.000Z,472
2022-09-07T07:48:00.000Z,600
2022-09-07T07:49:17.000Z,740
2022-09-07T07:50:33.000Z,860
2022-09-07T07:51:49.000Z,924
2022-09-07T07:53:05.000Z,892
2022-09-07T07:54:21.000Z,764
2022-09-07T07:55:37.000Z,676
2022-09-07T07:56:53.000Z,628
2022-09-07T07:58:10.000Z,612
2022-09-07T07:59:26.000Z,624
2022-09-07T08:00:41.000Z,660
2022-09-07T08:01:57.000Z,696
2022-09-07T08:03:13.000Z,668
2022-09-07T08:04:29.000Z,684
2022-09-07T08:05:45.000Z,768
2022-09-07T08:07:02.354Z,820
2022-09-07T08:08:18.000Z,876
2022-09-07T08:09:34.000Z,900
2022-09-07T08:10:50.779Z,892
2022-09-07T08:12:06.000Z,912
2022-09-07T08:13:22.000Z,960
2022-09-07T08:14:38.000Z,992
2022-09-07T08:15:55.000Z,1020
2022-09-07T08:17:10.000Z,1176
2022-09-07T08:18:26.671Z,1496
2022-09-07T08:19:42.000Z,1644
2022-09-07T08:20:58.000Z,1588
2022-09-07T08:22:14.000Z,1576
2022-09-07T08:23:31.253Z,1576
2022-09-07T08:24:47.000Z,1404
2022-09-07T08:26:03.541Z,1192
2022-09-07T08:27:19.000Z,1160
2022-09-07T08:28:35.000Z,1016
2022-09-07T08:29:51.000Z,824
2022-09-07T08:31:07.000Z,824
2022-09-07T08:32:24.000Z,936
2022-09-07T08:33:39.000Z,964
2022-09-07T08:34:55.578Z,976
2022-09-07T08:36:11.000Z,896
2022-09-07T08:37:27.863Z,992
2022-09-07T08:38:43.000Z,1240
2022-09-07T08:40:00.160Z,1244
2022-09-07T08:41:16.305Z,1176
2022-09-07T08:42:32.000Z,1180
2022-09-07T08:43:48.594Z,1320
2022-09-07T08:45:04.000Z,1316
2022-09-07T08:46:20.000Z,1228
2022-09-07T08:47:37.040Z,1128
2022-09-07T08:48:52.000Z,1064
2022-09-07T08:50:08.340Z,1028
2022-09-07T08:51:24.488Z,1008
2022-09-07T08:52:40.000Z,1000
2022-09-07T08:53:56.000Z,1008
2022-09-07T08:55:12.000Z,1012
2022-09-07T08:56:28.000Z,1024
2022-09-07T08:57:44.000Z,1044
2022-09-07T08:59:00.000Z,1068
2022-09-07T09:00:16.000Z,1072
2022-09-07T09:01:32.000Z,1056
2022-09-07T09:02:48.000Z,1028
2022-09-07T09:04:04.000Z,1012
2022-09-07T09:05:20.000Z,1000
2022-09-07T09:06:37.000Z,1000
2022-09-07T09:07:53.000Z,1016
2022-09-07T09:09:09.532Z,1064
2022-09-07T09:10:25.000Z,1144
2022-09-07T09:11:41.000Z,1256
2022-09-07T09:12:57.976Z,1388
2022-09-07T09:14:12.000Z,1492
2022-09-07T09:15:29.000Z,1580
2022-09-07T09:16:45.000Z,1644
2022-09-07T09:18:01.000Z,1772
2022-09-07T09:19:17.000Z,1852
2022-09-07T09:20:33.000Z,1824
2022-09-07T09:21:49.000Z,1708
2022-09-07T09:23:06.153Z,1500
2022-09-07T09:24:22.000Z,1268
2022-09-07T09:25:38.441Z,1200
2022-09-07T09:26:54.000Z,1268
2022-09-07T09:28:10.000Z,1368
2022-09-07T09:29:26.000Z,1452
2022-09-07T09:30:41.000Z,1344
2022-09-07T09:31:57.000Z,1044
2022-09-07T09:33:14.000Z,896
2022-09-07T09:34:30.000Z,892
2022-09-07T09:35:46.000Z,720
2022-09-07T09:37:02.762Z,572
2022-09-07T09:38:18.000Z,696
2022-09-07T09:39:34.000Z,1020
2022-09-07T09:40:50.000Z,1052
2022-09-07T09:42:07.000Z,1220
2022-09-07T09:43:23.492Z,1492
2022-09-07T09:44:39.000Z,1652
2022-09-07T09:45:55.000Z,1572
2022-09-07T09:47:10.000Z,1480
2022-09-07T09:48:26.000Z,1444
2022-09-07T09:49:43.000Z,1280
2022-09-07T09:50:59.000Z,1000
2022-09-07T09:52:15.525Z,920
2022-09-07T09:53:31.671Z,984
2022-09-07T09:54:47.000Z,1012
2022-09-07T09:56:03.000Z,1000
2022-09-07T09:57:19.000Z,1024
2022-09-07T09:58:36.000Z,968
2022-09-07T09:59:52.000Z,904
2022-09-07T10:01:08.000Z,968
2022-09-07T10:02:24.688Z,1000
2022-09-07T10:03:39.848Z,1060
2022-09-07T10:04:55.993Z,1144
2022-09-07T10:06:11.000Z,1236
2022-09-07T10:07:28.000Z,1308
2022-09-07T10:08:44.000Z,1356
2022-09-07T10:10:00.000Z,1472
2022-09-07T10:11:16.000Z,1540
2022-09-07T10:12:32.000Z,1556
2022-09-07T10:13:48.000Z,1552
2022-09-07T10:15:04.000Z,1552
2022-09-07T10:16:21.000Z,1576
2022-09-07T10:17:37.000Z,1724
2022-09-07T10:18:53.594Z,1840
2022-09-07T10:20:08.000Z,1928
2022-09-07T10:21:24.000Z,1992
2022-09-07T10:22:40.000Z,2036
2022-09-07T10:23:56.000Z,2040
2022-09-07T10:25:13.000Z,2032
2022-09-07T10:26:29.000Z,2016
2022-09-07T10:27:45.000Z,2024
2022-09-07T10:29:01.000Z,2092
2022-09-07T10:30:17.000Z,2152
2022-09-07T10:31:34.057Z,2164
2022-09-07T10:32:49.000Z,2156
2022-09-07T10:34:06.000Z,2168
2022-09-07T10:35:22.000Z,2224
2022-09-07T10:36:37.654Z,2348
2022-09-07T10:37:53.000Z,2520
2022-09-07T10:39:09.000Z,2672
2022-09-07T10:40:25.000Z,2740
2022-09-07T10:41:42.000Z,2720
2022-09-07T10:42:58.000Z,2652
2022-09-07T10:44:14.000Z,2612
2022-09-07T10:45:30.000Z,2608
2022-09-07T10:46:46.000Z,2616
2022-09-07T10:48:02.964Z,2624
2022-09-07T10:49:18.000Z,2652
2022-09-07T10:50:35.254Z,2732
2022-09-07T10:51:51.000Z,2780
2022-09-07T10:53:06.000Z,2672
2022-09-07T10:54:22.703Z,2520
2022-09-07T10:55:38.846Z,2444
2022-09-07T10:56:54.000Z,2424
2022-09-07T10:58:10.000Z,2416
2022-09-07T10:59:27.000Z,2376
2022-09-07T11:00:43.000Z,2264
2022-09-07T11:01:59.575Z,2176
2022-09-07T11:03:15.718Z,2180
2022-09-07T11:04:31.000Z,2144
2022-09-07T11:05:47.000Z,2020
2022-09-07T11:07:03.000Z,1992
2022-09-07T11:08:20.000Z,2040
2022-09-07T11:09:35.465Z,1912
2022-09-07T11:10:51.000Z,1744
2022-09-07T11:12:07.000Z,1596
2022-09-07T11:13:23.000Z,1500
2022-09-07T11:14:39.000Z,1472
2022-09-07T11:15:55.000Z,1492
2022-09-07T11:17:12.000Z,1480
2022-09-07T11:18:28.000Z,1480
2022-09-07T11:19:44.000Z,1468
2022-09-07T11:21:00.000Z,1496
2022-09-07T11:22:16.000Z,1612
2022-09-07T11:23:32.000Z,1704
2022-09-07T11:24:48.000Z,1780
2022-09-07T11:26:04.362Z,1896
2022-09-07T11:27:20.000Z,1924
2022-09-07T11:28:36.000Z,2000
2022-09-07T11:29:52.000Z,2632
2022-09-07T11:31:08.000Z,3308
2022-09-07T11:32:25.091Z,3480
2022-09-07T11:33:41.000Z,3580
2022-09-07T11:34:57.000Z,3524
2022-09-07T11:36:13.000Z,3104
2022-09-07T11:37:29.684Z,2800
2022-09-07T11:38:45.000Z,2876
2022-09-07T11:40:01.963Z,3064
2022-09-07T11:41:18.107Z,3284
2022-09-07T11:42:33.000Z,3228
2022-09-07T11:43:49.000Z,2916
2022-09-07T11:45:05.558Z,2728
2022-09-07T11:46:21.000Z,3012
2022-09-07T11:47:37.000Z,3252
2022-09-07T11:48:53.000Z,2976
2022-09-07T11:50:09.000Z,3132
2022-09-07T11:51:26.000Z,3528
2022-09-07T11:52:42.430Z,3596
2022-09-07T11:53:58.000Z,3448
2022-09-07T11:55:14.507Z,3380
2022-09-07T11:56:30.000Z,3332
2022-09-07T11:57:46.000Z,3204
2022-09-07T11:59:01.000Z,3268
2022-09-07T12:00:18.000Z,3356
2022-09-07T12:01:34.461Z,3364
2022-09-07T12:02:50.000Z,3328
2022-09-07T12:04:06.769Z,3452
2022-09-07T12:05:22.000Z,3480
2022-09-07T12:06:38.000Z,3204
2022-09-07T12:07:54.000Z,3328
2022-09-07T12:09:11.336Z,3712
2022-09-07T12:10:27.000Z,3852
2022-09-07T12:11:43.000Z,3912
2022-09-07T12:12:59.779Z,3984
2022-09-07T12:14:15.000Z,3964
2022-09-07T12:15:30.000Z,3904
2022-09-07T12:16:47.000Z,3720
2022-09-07T12:18:03.000Z,3524
2022-09-07T12:19:19.000Z,3424
2022-09-07T12:20:35.000Z,3352
2022-09-07T12:21:51.000Z,3320
2022-09-07T12:23:07.000Z,3172
2022-09-07T12:24:23.000Z,2888
2022-09-07T12:25:40.242Z,2612
2022-09-07T12:26:56.385Z,2568
2022-09-07T12:28:12.538Z,2616
2022-09-07T12:29:28.000Z,2668
2022-09-07T12:30:44.000Z,2668
2022-09-07T12:31:59.000Z,2540
2022-09-07T12:33:16.135Z,2416
2022-09-07T12:34:32.000Z,2356
2022-09-07T12:35:48.000Z,2320
2022-09-07T12:37:04.000Z,2244
2022-09-07T12:38:20.000Z,2128
2022-09-07T12:39:36.000Z,1988
2022-09-07T12:40:53.010Z,1936
2022-09-07T12:42:08.000Z,1820
2022-09-07T12:43:25.000Z,1680
2022-09-07T12:44:41.000Z,1616
2022-09-07T12:45:57.000Z,1612
2022-09-07T12:47:13.000Z,1704
2022-09-07T12:48:28.000Z,1844
2022-09-07T12:49:44.000Z,1984
2022-09-07T12:51:01.199Z,2128
2022-09-07T12:52:17.000Z,2256
2022-09-07T12:53:33.000Z,2320
2022-09-07T12:54:49.000Z,2368
2022-09-07T12:56:05.000Z,2408
2022-09-07T12:57:21.914Z,2436
2022-09-07T12:58:37.000Z,2516
2022-09-07T12:59:53.000Z,2640
2022-09-07T13:01:10.000Z,2740
2022-09-07T13:02:26.000Z,2868
2022-09-07T13:03:42.000Z,3072
2022-09-07T13:04:57.000Z,3356
2022-09-07T13:06:13.947Z,3512
2022-09-07T13:07:29.000Z,3572
2022-09-07T13:08:46.000Z,3572
2022-09-07T13:10:02.000Z,3556
2022-09-07T13:11:18.000Z,3556
2022-09-07T13:12:33.694Z,3476
2022-09-07T13:13:49.839Z,3412
2022-09-07T13:15:05.000Z,3316
2022-09-07T13:16:21.000Z,3372
2022-09-07T13:17:38.289Z,3396
2022-09-07T13:18:54.427Z,3488
2022-09-07T13:20:10.567Z,3716
2022-09-07T13:21:26.000Z,3580
2022-09-07T13:22:42.000Z,3656
2022-09-07T13:23:58.000Z,3752
2022-09-07T13:25:14.000Z,3892
2022-09-07T13:26:31.000Z,3972
2022-09-07T13:27:47.452Z,4056
2022-09-07T13:29:02.000Z,4544
2022-09-07T13:30:18.000Z,4096
2022-09-07T13:31:34.000Z,3776
2022-09-07T13:32:50.000Z,3824
2022-09-07T13:34:06.000Z,4204
2022-09-07T13:35:23.332Z,3948
2022-09-07T13:36:39.000Z,3992
2022-09-07T13:37:55.620Z,3992
2022-09-07T13:39:11.761Z,4152
2022-09-07T13:40:27.000Z,4612
2022-09-07T13:41:43.000Z,4592
2022-09-07T13:42:59.000Z,4724
2022-09-07T13:44:16.000Z,4716
2022-09-07T13:45:31.000Z,4544
2022-09-07T13:46:47.656Z,4000
2022-09-07T13:48:03.000Z,4260
2022-09-07T13:49:19.943Z,4236
2022-09-07T13:50:35.000Z,4072
2022-09-07T13:51:52.249Z,3080
2022-09-07T13:53:08.000Z,3316
2022-09-07T13:54:24.000Z,3820
2022-09-07T13:55:40.000Z,3640
2022-09-07T13:56:56.817Z,3532
2022-09-07T13:58:12.000Z,3444
2022-09-07T13:59:28.000Z,3112
2022-09-07T14:00:45.000Z,2896
2022-09-07T14:02:00.000Z,2648
2022-09-07T14:03:16.000Z,2748
2022-09-07T14:04:32.000Z,2708
2022-09-07T14:05:48.000Z,2608
2022-09-07T14:07:04.000Z,2524
2022-09-07T14:08:20.000Z,2284
2022-09-07T14:09:37.000Z,2140
2022-09-07T14:10:53.000Z,2232
2022-09-07T14:12:09.584Z,2128
2022-09-07T14:13:25.000Z,1988
2022-09-07T14:14:41.874Z,1908
2022-09-07T14:15:57.000Z,1728
2022-09-07T14:17:13.000Z,1732
2022-09-07T14:18:29.000Z,1712
2022-09-07T14:19:45.000Z,1732
2022-09-07T14:21:01.000Z,1644
2022-09-07T14:22:17.000Z,1772
2022-09-07T14:23:33.000Z,1868
2022-09-07T14:24:49.000Z,1916
2022-09-07T14:26:05.000Z,1872
2022-09-07T14:27:22.000Z,1812
2022-09-07T14:28:38.000Z,1680
2022-09-07T14:29:54.000Z,1712
2022-09-07T14:31:10.000Z,1896
2022-09-07T14:32:26.922Z,1976
2022-09-07T14:33:42.000Z,1908
2022-09-07T14:34:58.000Z,1808
2022-09-07T14:36:14.368Z,1792
2022-09-07T14:37:30.000Z,1872
2022-09-07T14:38:46.000Z,1888
2022-09-07T14:40:02.000Z,1868
2022-09-07T14:41:18.000Z,1804
2022-09-07T14:42:35.107Z,1724
2022-09-07T14:43:51.000Z,1712
2022-09-07T14:45:07.000Z,1728
2022-09-07T14:46:23.000Z,1704
2022-09-07T14:47:39.000Z,1688
2022-09-07T14:48:55.000Z,1632
2022-09-07T14:50:11.972Z,1696
2022-09-07T14:51:26.000Z,1668
2022-09-07T14:52:43.000Z,1704
2022-09-07T14:53:59.000Z,1804
2022-09-07T14:55:15.000Z,1820
2022-09-07T14:56:31.000Z,1792
2022-09-07T14:57:47.858Z,1764
2022-09-07T14:59:03.000Z,1768
2022-09-07T15:00:20.151Z,1908
2022-09-07T15:01:36.000Z,1980
2022-09-07T15:02:52.000Z,1980
2022-09-07T15:04:08.000Z,1924
2022-09-07T15:05:24.000Z,1872
2022-09-07T15:06:40.000Z,1844
2022-09-07T15:07:55.000Z,1812
2022-09-07T15:09:11.000Z,1764
2022-09-07T15:10:28.000Z,1616
2022-09-07T15:11:44.475Z,1620
2022-09-07T15:13:00.000Z,1572
2022-09-07T15:14:16.000Z,1524
2022-09-07T15:15:32.000Z,1480
2022-09-07T15:16:48.000Z,1444
2022-09-07T15:18:04.000Z,1420
2022-09-07T15:19:21.000Z,1420
2022-09-07T15:20:37.498Z,1384
2022-09-07T15:21:53.659Z,1316
2022-09-07T15:23:09.000Z,1228
2022-09-07T15:24:24.000Z,1144
2022-09-07T15:25:40.000Z,1136
2022-09-07T15:26:57.249Z,1108
2022-09-07T15:28:13.000Z,1080
2022-09-07T15:29:29.000Z,1068
2022-09-07T15:30:45.878Z,996
2022-09-07T15:32:01.000Z,1064
2022-09-07T15:33:17.000Z,1096
2022-09-07T15:34:33.000Z,1068
2022-09-07T15:35:50.000Z,1012
2022-09-07T15:37:06.000Z,1004
2022-09-07T15:38:22.000Z,984
2022-09-07T15:39:38.000Z,1012
2022-09-07T15:40:53.000Z,1000
2022-09-07T15:42:09.000Z,1008
2022-09-07T15:43:25.000Z,1040
2022-09-07T15:44:42.000Z,1008
2022-09-07T15:45:58.000Z,996
2022-09-07T15:47:14.000Z,1008
2022-09-07T15:48:30.000Z,980
2022-09-07T15:49:46.000Z,960
2022-09-07T15:51:02.000Z,944
2022-09-07T15:52:18.000Z,928
2022-09-07T15:53:35.000Z,948
2022-09-07T15:54:51.000Z,924
2022-09-07T15:56:07.000Z,900
2022-09-07T15:57:22.797Z,892
2022-09-07T15:58:38.000Z,880
2022-09-07T15:59:54.000Z,860
2022-09-07T16:01:11.000Z,876
2022-09-07T16:02:27.000Z,868
2022-09-07T16:03:43.536Z,872
2022-09-07T16:04:59.000Z,868
2022-09-07T16:06:15.824Z,864
2022-09-07T16:07:31.000Z,836
2022-09-07T16:08:48.114Z,804
2022-09-07T16:10:04.000Z,772
2022-09-07T16:11:20.414Z,756
2022-09-07T16:12:36.000Z,732
2022-09-07T16:13:51.000Z,704
2022-09-07T16:15:07.868Z,704
2022-09-07T16:16:23.000Z,696
2022-09-07T16:17:39.000Z,688
2022-09-07T16:18:56.000Z,680
2022-09-07T16:20:12.000Z,652
2022-09-07T16:21:28.000Z,644
2022-09-07T16:22:44.768Z,636
2022-09-07T16:24:00.000Z,632
2022-09-07T16:25:17.039Z,636
2022-09-07T16:26:32.000Z,648
2022-09-07T16:27:49.000Z,652
2022-09-07T16:29:05.000Z,644
2022-09-07T16:30:20.000Z,636
2022-09-07T16:31:36.000Z,652
2022-09-07T16:32:52.000Z,644
2022-09-07T16:34:08.000Z,624
2022-09-07T16:35:25.000Z,624
2022-09-07T16:36:41.372Z,600
2022-09-07T16:37:57.000Z,596
2022-09-07T16:39:13.671Z,584
2022-09-07T16:40:29.000Z,588
2022-09-07T16:41:45.000Z,600
2022-09-07T16:43:01.000Z,600
2022-09-07T16:44:18.000Z,604
2022-09-07T16:45:34.000Z,604
2022-09-07T16:46:49.000Z,612
2022-09-07T16:48:05.000Z,620
2022-09-07T16:49:21.000Z,620
2022-09-07T16:50:37.000Z,624
2022-09-07T16:51:53.000Z,624
2022-09-07T16:53:10.293Z,616
2022-09-07T16:54:26.000Z,604
2022-09-07T16:55:42.000Z,588
2022-09-07T16:56:58.000Z,568
2022-09-07T16:58:14.875Z,548
2022-09-07T16:59:30.000Z,528
2022-09-07T17:00:46.000Z,512
2022-09-07T17:02:03.000Z,492
2022-09-07T17:03:18.000Z,476
2022-09-07T17:04:34.000Z,460
2022-09-07T17:05:50.000Z,436
2022-09-07T17:07:06.000Z,420
2022-09-07T17:08:23.070Z,412
2022-09-07T17:09:38.000Z,404
2022-09-07T17:10:55.000Z,400
2022-09-07T17:12:11.511Z,392
2022-09-07T17:13:27.656Z,380
2022-09-07T17:14:43.000Z,364
2022-09-07T17:15:59.000Z,348
2022-09-07T17:17:15.000Z,340
2022-09-07T17:18:32.000Z,328
2022-09-07T17:19:47.000Z,324
2022-09-07T17:21:03.000Z,312
2022-09-07T17:22:19.000Z,304
2022-09-07T17:23:35.000Z,296
2022-09-07T17:24:51.000Z,284
2022-09-07T17:26:07.000Z,276
2022-09-07T17:27:23.330Z,268
2022-09-07T17:28:39.000Z,260
2022-09-07T17:29:55.000Z,252
2022-09-07T17:31:11.000Z,244
2022-09-07T17:32:27.000Z,232
2022-09-07T17:33:43.000Z,216